sensor_id;sensor_type;location;lat;lon;timestamp;P1;durP1;ratioP1;P2;durP2;ratioP2
6288;SDS011;3177;49.880;8.836;2022-08-18T00:00:44;5.30;;;4.80;;
6288;SDS011;3177;49.880;8.836;2022-08-18T00:03:11;6.05;;;4.47;;
6288;SDS011;3177;49.880;8.836;2022-08-18T00:05:38;8.63;;;6.15;;
6288;SDS011;3177;49.880;8.836;2022-08-18T00:08:06;4.90;;;4.35;;
6288;SDS011;3177;49.880;8.836;2022-08-18T00:10:34;11.65;;;5.63;;
6288;SDS011;3177;49.880;8.836;2022-08-18T00:13:01;7.03;;;4.10;;
6288;SDS011;3177;49.880;8.836;2022-08-18T00:15:28;5.35;;;4.20;;
6288;SDS011;3177;49.880;8.836;2022-08-18T00:17:55;6.05;;;4.72;;
6288;SDS011;3177;49.880;8.836;2022-08-18T00:20:23;5.32;;;3.97;;
6288;SDS011;3177;49.880;8.836;2022-08-18T00:22:50;5.70;;;4.07;;
6288;SDS011;3177;49.880;8.836;2022-08-18T00:25:18;5.65;;;4.15;;
6288;SDS011;3177;49.880;8.836;2022-08-18T00:27:46;4.60;;;4.18;;
6288;SDS011;3177;49.880;8.836;2022-08-18T00:30:14;4.30;;;3.70;;
6288;SDS011;3177;49.880;8.836;2022-08-18T00:32:43;5.35;;;3.97;;
6288;SDS011;3177;49.880;8.836;2022-08-18T00:35:13;4.30;;;3.63;;
6288;SDS011;3177;49.880;8.836;2022-08-18T00:37:42;4.30;;;3.90;;
6288;SDS011;3177;49.880;8.836;2022-08-18T00:40:10;4.28;;;3.72;;
6288;SDS011;3177;49.880;8.836;2022-08-18T00:42:39;4.43;;;3.95;;
6288;SDS011;3177;49.880;8.836;2022-08-18T00:45:11;4.70;;;4.28;;
6288;SDS011;3177;49.880;8.836;2022-08-18T00:47:39;4.90;;;4.20;;
6288;SDS011;3177;49.880;8.836;2022-08-18T00:50:06;6.68;;;4.22;;
6288;SDS011;3177;49.880;8.836;2022-08-18T00:52:33;5.20;;;3.85;;
6288;SDS011;3177;49.880;8.836;2022-08-18T00:55:01;5.10;;;3.80;;
6288;SDS011;3177;49.880;8.836;2022-08-18T00:57:28;4.30;;;3.90;;
6288;SDS011;3177;49.880;8.836;2022-08-18T00:59:58;4.20;;;3.90;;
6288;SDS011;3177;49.880;8.836;2022-08-18T01:02:34;7.28;;;4.72;;
6288;SDS011;3177;49.880;8.836;2022-08-18T01:05:05;5.95;;;4.50;;
6288;SDS011;3177;49.880;8.836;2022-08-18T01:07:35;5.82;;;3.63;;
6288;SDS011;3177;49.880;8.836;2022-08-18T01:10:04;4.57;;;4.20;;
6288;SDS011;3177;49.880;8.836;2022-08-18T01:12:31;4.57;;;4.18;;
6288;SDS011;3177;49.880;8.836;2022-08-18T01:14:59;8.07;;;4.68;;
6288;SDS011;3177;49.880;8.836;2022-08-18T01:17:26;5.13;;;4.07;;
6288;SDS011;3177;49.880;8.836;2022-08-18T01:20:14;5.57;;;4.40;;
6288;SDS011;3177;49.880;8.836;2022-08-18T01:23:03;4.50;;;4.10;;
6288;SDS011;3177;49.880;8.836;2022-08-18T01:25:35;5.30;;;4.28;;
6288;SDS011;3177;49.880;8.836;2022-08-18T01:28:21;12.48;;;4.70;;
6288;SDS011;3177;49.880;8.836;2022-08-18T01:30:49;7.35;;;4.40;;
6288;SDS011;3177;49.880;8.836;2022-08-18T01:33:17;4.88;;;4.38;;
6288;SDS011;3177;49.880;8.836;2022-08-18T01:35:45;7.00;;;4.45;;
6288;SDS011;3177;49.880;8.836;2022-08-18T01:38:15;7.68;;;4.90;;
6288;SDS011;3177;49.880;8.836;2022-08-18T01:40:42;6.28;;;4.45;;
6288;SDS011;3177;49.880;8.836;2022-08-18T01:43:10;5.28;;;4.78;;
6288;SDS011;3177;49.880;8.836;2022-08-18T01:45:37;5.90;;;4.55;;
6288;SDS011;3177;49.880;8.836;2022-08-18T01:48:04;6.95;;;4.88;;
6288;SDS011;3177;49.880;8.836;2022-08-18T01:50:31;4.70;;;4.30;;
6288;SDS011;3177;49.880;8.836;2022-08-18T01:52:59;7.45;;;4.85;;
6288;SDS011;3177;49.880;8.836;2022-08-18T01:55:27;5.00;;;4.60;;
6288;SDS011;3177;49.880;8.836;2022-08-18T01:57:54;4.97;;;4.57;;
6288;SDS011;3177;49.880;8.836;2022-08-18T02:00:22;6.47;;;4.65;;
6288;SDS011;3177;49.880;8.836;2022-08-18T02:02:50;5.30;;;4.80;;
6288;SDS011;3177;49.880;8.836;2022-08-18T02:05:19;5.38;;;4.55;;
6288;SDS011;3177;49.880;8.836;2022-08-18T02:07:48;4.95;;;4.47;;
6288;SDS011;3177;49.880;8.836;2022-08-18T02:10:15;4.72;;;4.30;;
6288;SDS011;3177;49.880;8.836;2022-08-18T02:12:45;6.05;;;4.90;;
6288;SDS011;3177;49.880;8.836;2022-08-18T02:15:12;10.93;;;5.18;;
6288;SDS011;3177;49.880;8.836;2022-08-18T02:17:39;5.72;;;5.10;;
6288;SDS011;3177;49.880;8.836;2022-08-18T02:20:08;8.35;;;5.38;;
6288;SDS011;3177;49.880;8.836;2022-08-18T02:22:35;4.93;;;4.50;;
6288;SDS011;3177;49.880;8.836;2022-08-18T02:25:03;6.45;;;5.00;;
6288;SDS011;3177;49.880;8.836;2022-08-18T02:27:30;4.93;;;4.47;;
6288;SDS011;3177;49.880;8.836;2022-08-18T02:29:59;7.78;;;4.97;;
6288;SDS011;3177;49.880;8.836;2022-08-18T02:32:27;6.53;;;5.50;;
6288;SDS011;3177;49.880;8.836;2022-08-18T02:34:54;6.32;;;4.82;;
6288;SDS011;3177;49.880;8.836;2022-08-18T02:37:21;6.53;;;5.85;;
6288;SDS011;3177;49.880;8.836;2022-08-18T02:39:48;5.82;;;4.80;;
6288;SDS011;3177;49.880;8.836;2022-08-18T02:42:15;6.00;;;4.70;;
6288;SDS011;3177;49.880;8.836;2022-08-18T02:44:42;5.40;;;4.88;;
6288;SDS011;3177;49.880;8.836;2022-08-18T02:47:11;8.55;;;5.60;;
6288;SDS011;3177;49.880;8.836;2022-08-18T02:49:38;5.65;;;5.15;;
6288;SDS011;3177;49.880;8.836;2022-08-18T02:52:05;5.60;;;5.10;;
6288;SDS011;3177;49.880;8.836;2022-08-18T02:54:32;6.88;;;5.07;;
6288;SDS011;3177;49.880;8.836;2022-08-18T02:57:04;5.93;;;5.13;;
6288;SDS011;3177;49.880;8.836;2022-08-18T02:59:32;5.00;;;4.60;;
6288;SDS011;3177;49.880;8.836;2022-08-18T03:01:59;6.30;;;5.22;;
6288;SDS011;3177;49.880;8.836;2022-08-18T03:04:28;5.90;;;5.20;;
6288;SDS011;3177;49.880;8.836;2022-08-18T03:06:55;7.68;;;5.07;;
6288;SDS011;3177;49.880;8.836;2022-08-18T03:09:23;7.40;;;5.70;;
6288;SDS011;3177;49.880;8.836;2022-08-18T03:11:50;9.80;;;5.25;;
6288;SDS011;3177;49.880;8.836;2022-08-18T03:14:18;5.30;;;4.80;;
6288;SDS011;3177;49.880;8.836;2022-08-18T03:16:46;7.93;;;5.40;;
6288;SDS011;3177;49.880;8.836;2022-08-18T03:19:13;6.22;;;5.18;;
6288;SDS011;3177;49.880;8.836;2022-08-18T03:21:42;6.18;;;5.03;;
6288;SDS011;3177;49.880;8.836;2022-08-18T03:24:10;5.40;;;4.90;;
6288;SDS011;3177;49.880;8.836;2022-08-18T03:26:39;5.70;;;5.20;;
6288;SDS011;3177;49.880;8.836;2022-08-18T03:29:06;5.95;;;5.15;;
6288;SDS011;3177;49.880;8.836;2022-08-18T03:31:34;5.65;;;5.15;;
6288;SDS011;3177;49.880;8.836;2022-08-18T03:34:03;5.32;;;4.82;;
6288;SDS011;3177;49.880;8.836;2022-08-18T03:36:31;5.05;;;4.65;;
6288;SDS011;3177;49.880;8.836;2022-08-18T03:39:02;5.45;;;4.88;;
6288;SDS011;3177;49.880;8.836;2022-08-18T03:41:30;6.55;;;5.05;;
6288;SDS011;3177;49.880;8.836;2022-08-18T03:43:57;5.65;;;4.80;;
6288;SDS011;3177;49.880;8.836;2022-08-18T03:46:24;5.63;;;5.13;;
6288;SDS011;3177;49.880;8.836;2022-08-18T03:48:51;6.03;;;4.70;;
6288;SDS011;3177;49.880;8.836;2022-08-18T03:51:19;5.82;;;5.30;;
6288;SDS011;3177;49.880;8.836;2022-08-18T03:53:49;7.10;;;5.68;;
6288;SDS011;3177;49.880;8.836;2022-08-18T03:56:19;5.32;;;4.88;;
6288;SDS011;3177;49.880;8.836;2022-08-18T03:58:48;6.07;;;5.47;;
6288;SDS011;3177;49.880;8.836;2022-08-18T04:01:16;7.15;;;5.25;;
6288;SDS011;3177;49.880;8.836;2022-08-18T04:03:44;6.82;;;5.65;;
6288;SDS011;3177;49.880;8.836;2022-08-18T04:06:13;6.18;;;5.57;;
6288;SDS011;3177;49.880;8.836;2022-08-18T04:08:40;5.20;;;4.80;;
6288;SDS011;3177;49.880;8.836;2022-08-18T04:11:08;7.95;;;5.78;;
6288;SDS011;3177;49.880;8.836;2022-08-18T04:13:36;5.38;;;4.88;;
6288;SDS011;3177;49.880;8.836;2022-08-18T04:16:03;8.00;;;5.03;;
6288;SDS011;3177;49.880;8.836;2022-08-18T04:18:30;8.88;;;4.93;;
6288;SDS011;3177;49.880;8.836;2022-08-18T04:21:00;5.57;;;4.88;;
6288;SDS011;3177;49.880;8.836;2022-08-18T04:23:28;6.25;;;5.18;;
6288;SDS011;3177;49.880;8.836;2022-08-18T04:25:55;6.95;;;4.93;;
6288;SDS011;3177;49.880;8.836;2022-08-18T04:28:22;5.70;;;5.10;;
6288;SDS011;3177;49.880;8.836;2022-08-18T04:30:51;6.55;;;5.53;;
6288;SDS011;3177;49.880;8.836;2022-08-18T04:36:10;6.80;;;6.10;;
6288;SDS011;3177;49.880;8.836;2022-08-18T04:38:37;10.30;;;5.38;;
6288;SDS011;3177;49.880;8.836;2022-08-18T04:41:06;9.07;;;5.70;;
6288;SDS011;3177;49.880;8.836;2022-08-18T04:43:33;10.65;;;6.03;;
6288;SDS011;3177;49.880;8.836;2022-08-18T04:46:01;9.27;;;5.18;;
6288;SDS011;3177;49.880;8.836;2022-08-18T04:48:29;11.75;;;5.78;;
6288;SDS011;3177;49.880;8.836;2022-08-18T04:51:01;7.15;;;5.75;;
6288;SDS011;3177;49.880;8.836;2022-08-18T04:53:29;7.05;;;5.80;;
6288;SDS011;3177;49.880;8.836;2022-08-18T04:56:15;7.90;;;5.85;;
6288;SDS011;3177;49.880;8.836;2022-08-18T04:58:45;7.32;;;5.55;;
6288;SDS011;3177;49.880;8.836;2022-08-18T05:01:18;6.78;;;5.60;;
6288;SDS011;3177;49.880;8.836;2022-08-18T05:03:45;7.35;;;6.03;;
6288;SDS011;3177;49.880;8.836;2022-08-18T05:06:13;8.95;;;6.18;;
6288;SDS011;3177;49.880;8.836;2022-08-18T05:08:40;7.05;;;5.22;;
6288;SDS011;3177;49.880;8.836;2022-08-18T05:11:07;7.70;;;6.35;;
6288;SDS011;3177;49.880;8.836;2022-08-18T05:13:35;6.28;;;5.68;;
6288;SDS011;3177;49.880;8.836;2022-08-18T05:16:02;6.45;;;5.82;;
6288;SDS011;3177;49.880;8.836;2022-08-18T05:18:32;9.27;;;6.47;;
6288;SDS011;3177;49.880;8.836;2022-08-18T05:21:02;9.32;;;5.90;;
6288;SDS011;3177;49.880;8.836;2022-08-18T05:23:30;9.90;;;6.55;;
6288;SDS011;3177;49.880;8.836;2022-08-18T05:25:57;8.45;;;6.20;;
6288;SDS011;3177;49.880;8.836;2022-08-18T05:28:24;7.55;;;6.07;;
6288;SDS011;3177;49.880;8.836;2022-08-18T05:30:51;6.72;;;5.90;;
6288;SDS011;3177;49.880;8.836;2022-08-18T05:33:19;10.07;;;7.35;;
6288;SDS011;3177;49.880;8.836;2022-08-18T05:35:53;10.55;;;6.75;;
6288;SDS011;3177;49.880;8.836;2022-08-18T05:38:31;9.25;;;6.38;;
6288;SDS011;3177;49.880;8.836;2022-08-18T05:41:03;11.07;;;6.57;;
6288;SDS011;3177;49.880;8.836;2022-08-18T05:43:37;8.45;;;6.22;;
6288;SDS011;3177;49.880;8.836;2022-08-18T05:46:06;8.02;;;6.35;;
6288;SDS011;3177;49.880;8.836;2022-08-18T05:48:33;7.47;;;6.65;;
6288;SDS011;3177;49.880;8.836;2022-08-18T05:51:06;11.05;;;6.68;;
6288;SDS011;3177;49.880;8.836;2022-08-18T05:53:37;7.32;;;6.45;;
6288;SDS011;3177;49.880;8.836;2022-08-18T05:56:23;7.72;;;6.60;;
6288;SDS011;3177;49.880;8.836;2022-08-18T05:59:08;8.48;;;6.78;;
6288;SDS011;3177;49.880;8.836;2022-08-18T06:01:37;9.85;;;6.70;;
6288;SDS011;3177;49.880;8.836;2022-08-18T06:04:05;8.88;;;6.75;;
6288;SDS011;3177;49.880;8.836;2022-08-18T06:06:35;8.38;;;6.18;;
6288;SDS011;3177;49.880;8.836;2022-08-18T06:09:04;7.43;;;6.72;;
6288;SDS011;3177;49.880;8.836;2022-08-18T06:11:32;11.88;;;7.13;;
6288;SDS011;3177;49.880;8.836;2022-08-18T06:13:59;7.65;;;6.60;;
6288;SDS011;3177;49.880;8.836;2022-08-18T06:16:31;8.27;;;6.43;;
6288;SDS011;3177;49.880;8.836;2022-08-18T06:19:02;8.95;;;6.75;;
6288;SDS011;3177;49.880;8.836;2022-08-18T06:21:35;9.38;;;6.65;;
6288;SDS011;3177;49.880;8.836;2022-08-18T06:24:06;8.02;;;6.60;;
6288;SDS011;3177;49.880;8.836;2022-08-18T06:26:38;8.05;;;6.80;;
6288;SDS011;3177;49.880;8.836;2022-08-18T06:29:11;7.68;;;6.88;;
6288;SDS011;3177;49.880;8.836;2022-08-18T06:31:41;7.18;;;6.47;;
6288;SDS011;3177;49.880;8.836;2022-08-18T06:34:12;7.25;;;6.25;;
6288;SDS011;3177;49.880;8.836;2022-08-18T06:36:45;6.90;;;6.30;;
6288;SDS011;3177;49.880;8.836;2022-08-18T06:39:14;8.07;;;6.65;;
6288;SDS011;3177;49.880;8.836;2022-08-18T06:41:45;8.00;;;6.65;;
6288;SDS011;3177;49.880;8.836;2022-08-18T06:44:15;8.68;;;6.40;;
6288;SDS011;3177;49.880;8.836;2022-08-18T06:46:46;7.25;;;6.38;;
6288;SDS011;3177;49.880;8.836;2022-08-18T06:49:17;7.72;;;7.03;;
6288;SDS011;3177;49.880;8.836;2022-08-18T06:51:47;8.60;;;7.20;;
6288;SDS011;3177;49.880;8.836;2022-08-18T06:54:24;7.20;;;6.60;;
6288;SDS011;3177;49.880;8.836;2022-08-18T06:56:53;8.82;;;7.18;;
6288;SDS011;3177;49.880;8.836;2022-08-18T06:59:22;7.50;;;6.80;;
6288;SDS011;3177;49.880;8.836;2022-08-18T07:01:51;10.45;;;7.13;;
6288;SDS011;3177;49.880;8.836;2022-08-18T07:04:33;10.35;;;7.15;;
6288;SDS011;3177;49.880;8.836;2022-08-18T07:07:12;10.27;;;6.85;;
6288;SDS011;3177;49.880;8.836;2022-08-18T07:09:39;8.13;;;6.85;;
6288;SDS011;3177;49.880;8.836;2022-08-18T07:12:08;8.82;;;7.43;;
6288;SDS011;3177;49.880;8.836;2022-08-18T07:14:41;9.30;;;8.40;;
6288;SDS011;3177;49.880;8.836;2022-08-18T07:17:09;10.65;;;7.50;;
6288;SDS011;3177;49.880;8.836;2022-08-18T07:19:37;10.15;;;7.47;;
6288;SDS011;3177;49.880;8.836;2022-08-18T07:22:06;8.18;;;7.07;;
6288;SDS011;3177;49.880;8.836;2022-08-18T07:24:37;8.52;;;7.10;;
6288;SDS011;3177;49.880;8.836;2022-08-18T07:27:05;9.40;;;7.35;;
6288;SDS011;3177;49.880;8.836;2022-08-18T07:29:34;9.85;;;7.85;;
6288;SDS011;3177;49.880;8.836;2022-08-18T07:32:02;8.88;;;7.43;;
6288;SDS011;3177;49.880;8.836;2022-08-18T07:34:33;7.72;;;6.93;;
6288;SDS011;3177;49.880;8.836;2022-08-18T07:37:03;8.32;;;7.05;;
6288;SDS011;3177;49.880;8.836;2022-08-18T07:39:33;8.55;;;7.65;;
6288;SDS011;3177;49.880;8.836;2022-08-18T07:42:05;9.15;;;7.47;;
6288;SDS011;3177;49.880;8.836;2022-08-18T07:44:36;8.70;;;7.22;;
6288;SDS011;3177;49.880;8.836;2022-08-18T07:47:06;8.57;;;7.70;;
6288;SDS011;3177;49.880;8.836;2022-08-18T07:49:38;8.88;;;6.80;;
6288;SDS011;3177;49.880;8.836;2022-08-18T07:52:06;7.00;;;6.35;;
6288;SDS011;3177;49.880;8.836;2022-08-18T07:54:39;8.05;;;6.82;;
6288;SDS011;3177;49.880;8.836;2022-08-18T07:57:12;11.13;;;7.32;;
6288;SDS011;3177;49.880;8.836;2022-08-18T07:59:42;9.55;;;7.57;;
6288;SDS011;3177;49.880;8.836;2022-08-18T08:02:19;9.18;;;7.55;;
6288;SDS011;3177;49.880;8.836;2022-08-18T08:04:52;8.85;;;7.07;;
6288;SDS011;3177;49.880;8.836;2022-08-18T08:07:25;11.13;;;7.47;;
6288;SDS011;3177;49.880;8.836;2022-08-18T08:09:58;7.55;;;6.82;;
6288;SDS011;3177;49.880;8.836;2022-08-18T08:12:34;8.38;;;7.50;;
6288;SDS011;3177;49.880;8.836;2022-08-18T08:15:05;8.38;;;6.80;;
6288;SDS011;3177;49.880;8.836;2022-08-18T08:17:37;8.75;;;7.10;;
6288;SDS011;3177;49.880;8.836;2022-08-18T08:20:11;9.95;;;6.90;;
6288;SDS011;3177;49.880;8.836;2022-08-18T08:22:43;7.72;;;6.93;;
6288;SDS011;3177;49.880;8.836;2022-08-18T08:25:16;9.77;;;7.25;;
6288;SDS011;3177;49.880;8.836;2022-08-18T08:27:49;8.70;;;7.57;;
6288;SDS011;3177;49.880;8.836;2022-08-18T08:30:24;9.00;;;8.02;;
6288;SDS011;3177;49.880;8.836;2022-08-18T08:32:56;10.70;;;9.10;;
6288;SDS011;3177;49.880;8.836;2022-08-18T08:35:30;14.30;;;9.68;;
6288;SDS011;3177;49.880;8.836;2022-08-18T08:38:00;14.20;;;9.40;;
6288;SDS011;3177;49.880;8.836;2022-08-18T08:40:31;11.75;;;9.57;;
6288;SDS011;3177;49.880;8.836;2022-08-18T08:43:02;13.25;;;9.43;;
6288;SDS011;3177;49.880;8.836;2022-08-18T08:45:32;12.55;;;9.80;;
6288;SDS011;3177;49.880;8.836;2022-08-18T08:48:01;12.20;;;11.00;;
6288;SDS011;3177;49.880;8.836;2022-08-18T08:50:29;11.15;;;9.88;;
6288;SDS011;3177;49.880;8.836;2022-08-18T08:53:01;12.15;;;10.18;;
6288;SDS011;3177;49.880;8.836;2022-08-18T08:55:29;18.33;;;10.52;;
6288;SDS011;3177;49.880;8.836;2022-08-18T08:58:00;12.75;;;9.25;;
6288;SDS011;3177;49.880;8.836;2022-08-18T09:00:30;15.05;;;10.93;;
6288;SDS011;3177;49.880;8.836;2022-08-18T09:03:00;11.60;;;10.35;;
6288;SDS011;3177;49.880;8.836;2022-08-18T09:05:34;12.27;;;9.57;;
6288;SDS011;3177;49.880;8.836;2022-08-18T09:08:10;11.02;;;9.80;;
6288;SDS011;3177;49.880;8.836;2022-08-18T09:13:31;11.38;;;9.52;;
6288;SDS011;3177;49.880;8.836;2022-08-18T09:16:10;12.13;;;10.80;;
6288;SDS011;3177;49.880;8.836;2022-08-18T09:18:46;13.88;;;10.90;;
6288;SDS011;3177;49.880;8.836;2022-08-18T09:21:20;13.23;;;11.70;;
6288;SDS011;3177;49.880;8.836;2022-08-18T09:23:52;16.10;;;11.90;;
6288;SDS011;3177;49.880;8.836;2022-08-18T09:26:25;16.65;;;13.65;;
6288;SDS011;3177;49.880;8.836;2022-08-18T09:28:57;17.30;;;14.07;;
6288;SDS011;3177;49.880;8.836;2022-08-18T09:31:26;16.13;;;13.60;;
6288;SDS011;3177;49.880;8.836;2022-08-18T09:34:02;13.20;;;11.82;;
6288;SDS011;3177;49.880;8.836;2022-08-18T09:36:35;18.23;;;15.15;;
6288;SDS011;3177;49.880;8.836;2022-08-18T09:39:07;15.85;;;14.25;;
6288;SDS011;3177;49.880;8.836;2022-08-18T09:41:57;16.50;;;14.43;;
6288;SDS011;3177;49.880;8.836;2022-08-18T09:47:13;16.95;;;14.57;;
6288;SDS011;3177;49.880;8.836;2022-08-18T09:50:30;15.98;;;14.38;;
6288;SDS011;3177;49.880;8.836;2022-08-18T09:52:52;16.63;;;13.50;;
6288;SDS011;3177;49.880;8.836;2022-08-18T09:55:51;18.70;;;13.85;;
6288;SDS011;3177;49.880;8.836;2022-08-18T09:58:20;16.83;;;13.43;;
6288;SDS011;3177;49.880;8.836;2022-08-18T10:01:19;18.70;;;15.65;;
6288;SDS011;3177;49.880;8.836;2022-08-18T10:06:28;19.23;;;15.90;;
6288;SDS011;3177;49.880;8.836;2022-08-18T10:11:56;19.48;;;16.10;;
6288;SDS011;3177;49.880;8.836;2022-08-18T10:14:29;19.17;;;16.40;;
6288;SDS011;3177;49.880;8.836;2022-08-18T10:17:06;20.33;;;16.98;;
6288;SDS011;3177;49.880;8.836;2022-08-18T10:19:43;23.25;;;18.75;;
6288;SDS011;3177;49.880;8.836;2022-08-18T10:22:14;21.77;;;18.33;;
6288;SDS011;3177;49.880;8.836;2022-08-18T10:24:59;23.98;;;19.42;;
6288;SDS011;3177;49.880;8.836;2022-08-18T10:27:33;25.08;;;19.48;;
6288;SDS011;3177;49.880;8.836;2022-08-18T10:30:01;24.90;;;20.25;;
6288;SDS011;3177;49.880;8.836;2022-08-18T10:32:40;24.55;;;19.95;;
6288;SDS011;3177;49.880;8.836;2022-08-18T10:38:05;25.42;;;21.90;;
6288;SDS011;3177;49.880;8.836;2022-08-18T10:40:35;23.25;;;19.85;;
6288;SDS011;3177;49.880;8.836;2022-08-18T10:43:06;23.98;;;21.30;;
6288;SDS011;3177;49.880;8.836;2022-08-18T10:45:35;22.17;;;19.38;;
6288;SDS011;3177;49.880;8.836;2022-08-18T10:48:07;25.67;;;20.13;;
6288;SDS011;3177;49.880;8.836;2022-08-18T10:50:37;25.92;;;20.77;;
6288;SDS011;3177;49.880;8.836;2022-08-18T10:53:07;22.65;;;19.90;;
6288;SDS011;3177;49.880;8.836;2022-08-18T10:55:45;33.85;;;26.50;;
6288;SDS011;3177;49.880;8.836;2022-08-18T11:01:04;30.77;;;26.45;;
6288;SDS011;3177;49.880;8.836;2022-08-18T11:03:38;35.05;;;27.23;;
6288;SDS011;3177;49.880;8.836;2022-08-18T11:06:08;32.75;;;26.33;;
6288;SDS011;3177;49.880;8.836;2022-08-18T11:08:40;32.50;;;26.60;;
6288;SDS011;3177;49.880;8.836;2022-08-18T11:11:09;35.03;;;29.27;;
6288;SDS011;3177;49.880;8.836;2022-08-18T11:13:38;32.90;;;28.55;;
6288;SDS011;3177;49.880;8.836;2022-08-18T11:16:10;38.75;;;33.55;;
6288;SDS011;3177;49.880;8.836;2022-08-18T11:18:44;37.78;;;30.08;;
6288;SDS011;3177;49.880;8.836;2022-08-18T11:24:06;42.72;;;33.95;;
6288;SDS011;3177;49.880;8.836;2022-08-18T11:26:35;44.42;;;34.17;;
6288;SDS011;3177;49.880;8.836;2022-08-18T11:29:15;40.72;;;32.17;;
6288;SDS011;3177;49.880;8.836;2022-08-18T11:31:42;38.53;;;32.03;;
6288;SDS011;3177;49.880;8.836;2022-08-18T11:34:12;36.80;;;30.60;;
6288;SDS011;3177;49.880;8.836;2022-08-18T11:36:40;37.28;;;32.00;;
6288;SDS011;3177;49.880;8.836;2022-08-18T11:39:08;32.72;;;28.60;;
6288;SDS011;3177;49.880;8.836;2022-08-18T11:41:35;32.35;;;28.52;;
6288;SDS011;3177;49.880;8.836;2022-08-18T11:44:05;35.35;;;27.75;;
6288;SDS011;3177;49.880;8.836;2022-08-18T11:46:39;32.40;;;25.58;;
6288;SDS011;3177;49.880;8.836;2022-08-18T11:49:15;26.75;;;23.90;;
6288;SDS011;3177;49.880;8.836;2022-08-18T11:51:52;29.50;;;25.23;;
6288;SDS011;3177;49.880;8.836;2022-08-18T11:54:20;23.92;;;21.35;;
6288;SDS011;3177;49.880;8.836;2022-08-18T11:56:48;22.27;;;19.98;;
6288;SDS011;3177;49.880;8.836;2022-08-18T11:59:30;24.15;;;19.80;;
6288;SDS011;3177;49.880;8.836;2022-08-18T12:01:59;24.52;;;19.15;;
6288;SDS011;3177;49.880;8.836;2022-08-18T12:04:28;20.00;;;17.90;;
6288;SDS011;3177;49.880;8.836;2022-08-18T12:07:01;22.73;;;20.42;;
6288;SDS011;3177;49.880;8.836;2022-08-18T12:09:37;24.90;;;21.17;;
6288;SDS011;3177;49.880;8.836;2022-08-18T12:12:13;22.58;;;20.27;;
6288;SDS011;3177;49.880;8.836;2022-08-18T12:14:50;23.25;;;20.67;;
6288;SDS011;3177;49.880;8.836;2022-08-18T12:17:18;24.77;;;22.10;;
6288;SDS011;3177;49.880;8.836;2022-08-18T12:19:46;26.05;;;22.77;;
6288;SDS011;3177;49.880;8.836;2022-08-18T12:22:15;26.10;;;22.83;;
6288;SDS011;3177;49.880;8.836;2022-08-18T12:24:43;28.33;;;24.20;;
6288;SDS011;3177;49.880;8.836;2022-08-18T12:27:11;23.83;;;21.30;;
6288;SDS011;3177;49.880;8.836;2022-08-18T12:29:39;25.50;;;22.77;;
6288;SDS011;3177;49.880;8.836;2022-08-18T12:32:06;26.23;;;23.20;;
6288;SDS011;3177;49.880;8.836;2022-08-18T12:34:34;26.52;;;22.92;;
6288;SDS011;3177;49.880;8.836;2022-08-18T12:37:02;24.92;;;21.05;;
6288;SDS011;3177;49.880;8.836;2022-08-18T12:39:30;24.83;;;21.27;;
6288;SDS011;3177;49.880;8.836;2022-08-18T12:41:57;22.92;;;20.42;;
6288;SDS011;3177;49.880;8.836;2022-08-18T12:44:24;24.52;;;21.95;;
6288;SDS011;3177;49.880;8.836;2022-08-18T12:46:52;21.67;;;19.48;;
6288;SDS011;3177;49.880;8.836;2022-08-18T12:49:21;21.20;;;18.77;;
6288;SDS011;3177;49.880;8.836;2022-08-18T12:51:48;21.25;;;19.05;;
6288;SDS011;3177;49.880;8.836;2022-08-18T12:54:17;19.75;;;17.73;;
6288;SDS011;3177;49.880;8.836;2022-08-18T12:56:44;20.45;;;17.88;;
6288;SDS011;3177;49.880;8.836;2022-08-18T12:59:12;18.85;;;16.90;;
6288;SDS011;3177;49.880;8.836;2022-08-18T13:01:39;19.05;;;16.88;;
6288;SDS011;3177;49.880;8.836;2022-08-18T13:04:06;18.17;;;16.33;;
6288;SDS011;3177;49.880;8.836;2022-08-18T13:06:34;20.25;;;17.83;;
6288;SDS011;3177;49.880;8.836;2022-08-18T13:09:02;20.30;;;18.17;;
6288;SDS011;3177;49.880;8.836;2022-08-18T13:11:31;20.15;;;18.08;;
6288;SDS011;3177;49.880;8.836;2022-08-18T13:13:58;24.05;;;17.58;;
6288;SDS011;3177;49.880;8.836;2022-08-18T13:16:25;19.25;;;15.23;;
6288;SDS011;3177;49.880;8.836;2022-08-18T13:18:53;17.85;;;16.00;;
6288;SDS011;3177;49.880;8.836;2022-08-18T13:21:20;23.48;;;17.35;;
6288;SDS011;3177;49.880;8.836;2022-08-18T13:23:47;22.08;;;18.38;;
6288;SDS011;3177;49.880;8.836;2022-08-18T13:26:15;20.73;;;16.70;;
6288;SDS011;3177;49.880;8.836;2022-08-18T13:28:46;17.05;;;15.43;;
6288;SDS011;3177;49.880;8.836;2022-08-18T13:31:13;19.63;;;17.50;;
6288;SDS011;3177;49.880;8.836;2022-08-18T13:33:40;19.88;;;16.98;;
6288;SDS011;3177;49.880;8.836;2022-08-18T13:36:08;15.75;;;14.20;;
6288;SDS011;3177;49.880;8.836;2022-08-18T13:38:35;16.48;;;14.52;;
6288;SDS011;3177;49.880;8.836;2022-08-18T13:41:02;15.77;;;14.23;;
6288;SDS011;3177;49.880;8.836;2022-08-18T13:43:30;16.67;;;14.88;;
6288;SDS011;3177;49.880;8.836;2022-08-18T13:45:59;17.75;;;15.85;;
6288;SDS011;3177;49.880;8.836;2022-08-18T13:48:26;16.23;;;14.55;;
6288;SDS011;3177;49.880;8.836;2022-08-18T13:50:53;16.33;;;13.73;;
6288;SDS011;3177;49.880;8.836;2022-08-18T13:53:22;16.13;;;14.52;;
6288;SDS011;3177;49.880;8.836;2022-08-18T13:55:50;15.90;;;14.32;;
6288;SDS011;3177;49.880;8.836;2022-08-18T13:58:17;16.23;;;14.18;;
6288;SDS011;3177;49.880;8.836;2022-08-18T14:00:44;14.23;;;12.80;;
6288;SDS011;3177;49.880;8.836;2022-08-18T14:03:13;16.55;;;14.80;;
6288;SDS011;3177;49.880;8.836;2022-08-18T14:05:40;14.90;;;12.77;;
6288;SDS011;3177;49.880;8.836;2022-08-18T14:08:07;16.27;;;14.73;;
6288;SDS011;3177;49.880;8.836;2022-08-18T14:10:36;15.27;;;13.68;;
6288;SDS011;3177;49.880;8.836;2022-08-18T14:13:03;14.15;;;12.75;;
6288;SDS011;3177;49.880;8.836;2022-08-18T14:15:31;14.00;;;12.57;;
6288;SDS011;3177;49.880;8.836;2022-08-18T14:18:01;15.07;;;13.60;;
6288;SDS011;3177;49.880;8.836;2022-08-18T14:20:30;14.32;;;12.85;;
6288;SDS011;3177;49.880;8.836;2022-08-18T14:23:15;12.82;;;11.55;;
6288;SDS011;3177;49.880;8.836;2022-08-18T14:25:59;13.48;;;12.07;;
6288;SDS011;3177;49.880;8.836;2022-08-18T14:28:44;11.90;;;10.77;;
6288;SDS011;3177;49.880;8.836;2022-08-18T14:31:12;9.82;;;8.93;;
6288;SDS011;3177;49.880;8.836;2022-08-18T14:33:40;11.80;;;8.90;;
6288;SDS011;3177;49.880;8.836;2022-08-18T14:36:10;9.02;;;8.20;;
6288;SDS011;3177;49.880;8.836;2022-08-18T14:38:38;9.38;;;8.55;;
6288;SDS011;3177;49.880;8.836;2022-08-18T14:41:06;9.60;;;8.40;;
6288;SDS011;3177;49.880;8.836;2022-08-18T14:43:33;8.60;;;7.90;;
6288;SDS011;3177;49.880;8.836;2022-08-18T14:46:00;9.93;;;8.98;;
6288;SDS011;3177;49.880;8.836;2022-08-18T14:48:29;8.10;;;7.40;;
6288;SDS011;3177;49.880;8.836;2022-08-18T14:50:56;8.32;;;7.53;;
6288;SDS011;3177;49.880;8.836;2022-08-18T14:53:26;9.07;;;8.23;;
6288;SDS011;3177;49.880;8.836;2022-08-18T14:55:54;7.90;;;7.20;;
6288;SDS011;3177;49.880;8.836;2022-08-18T14:58:22;7.53;;;6.93;;
6288;SDS011;3177;49.880;8.836;2022-08-18T15:00:50;8.20;;;6.78;;
6288;SDS011;3177;49.880;8.836;2022-08-18T15:03:17;7.88;;;7.07;;
6288;SDS011;3177;49.880;8.836;2022-08-18T15:05:44;6.75;;;6.15;;
6288;SDS011;3177;49.880;8.836;2022-08-18T15:08:11;7.25;;;6.57;;
6288;SDS011;3177;49.880;8.836;2022-08-18T15:10:40;6.70;;;6.10;;
6288;SDS011;3177;49.880;8.836;2022-08-18T15:13:08;7.57;;;6.63;;
6288;SDS011;3177;49.880;8.836;2022-08-18T15:15:35;6.70;;;6.05;;
6288;SDS011;3177;49.880;8.836;2022-08-18T15:18:03;6.40;;;5.80;;
6288;SDS011;3177;49.880;8.836;2022-08-18T15:20:30;5.55;;;5.05;;
6288;SDS011;3177;49.880;8.836;2022-08-18T15:23:00;6.10;;;5.50;;
6288;SDS011;3177;49.880;8.836;2022-08-18T15:25:47;5.82;;;5.28;;
6288;SDS011;3177;49.880;8.836;2022-08-18T15:28:16;6.10;;;5.60;;
6288;SDS011;3177;49.880;8.836;2022-08-18T15:30:44;6.97;;;6.43;;
6288;SDS011;3177;49.880;8.836;2022-08-18T15:33:12;6.68;;;5.97;;
6288;SDS011;3177;49.880;8.836;2022-08-18T15:35:39;6.68;;;6.18;;
6288;SDS011;3177;49.880;8.836;2022-08-18T15:38:06;7.20;;;6.60;;
6288;SDS011;3177;49.880;8.836;2022-08-18T15:40:37;7.47;;;6.78;;
6288;SDS011;3177;49.880;8.836;2022-08-18T15:43:06;6.32;;;5.82;;
6288;SDS011;3177;49.880;8.836;2022-08-18T15:45:34;7.93;;;7.13;;